Comanche, Oklahoma
Current Conditions -  °F | °C
As of 5:55 AM on Monday 24 Nov 2014 (Local Time) from KDUC Reporting Station
Clear Clear  
Wind Chill: 31°   Ceiling: Unl
Heat Index: 36°   Visibility: 10mi
Dew Point: 30°   Wind: 6mph
Humidity: 81%   Direction: 320°NW
Pressure: 29.95"   Gusts: NA
Location:  34.37°N, 97.96°W
Report Text: KDUC 241155Z AUTO 32005KT 10SM CLR 02/M01 A2995 RMK AO2
Loading
Personal Weather Stations






























Interactive Weather Map New forecast layout! Learn more

10-Day Weather Forecast

Advertisements
Track Severe Weather on mobile